Crystal Lake, Illinois
Current Conditions -  °F | °C
As of 5:52 PM on Sunday 21 Dec 2014 (Local Time) from KDPA Reporting Station
Overcast Overcast  
Wind Chill: 27°   Ceiling: 2300
Heat Index: 36°   Visibility: 8mi
Dew Point: 30°   Wind: 14mph
Humidity: 79%   Direction: 160°SSE
Pressure: 30.07"   Gusts: NA
Location:  42.25°N, 88.32°W
Report Text: KDPA 212352Z 16012KT 8SM OVC023 02/M01 A3007 RMK AO2 SLP188 T00221011 10033 20017 53000
Loading
Personal Weather Stations






























Interactive Weather Map New forecast layout! Learn more

10-Day Weather Forecast

Advertisements
Track Severe Weather on mobile